Terminal Aerodrome Forecast
Issued by NWS

Home | Current Version | Previous Version | Text Only | Print | Product List | Glossary On
Versions: 1 2 3 4 5 6 7 8 9 10 11 12 13 14 15 16 17 18 19 20 21 22 23 24 25
000
FTUS43 KMPX 012100 AAB
TAFRWF
TAF AMD
KRWF 012144Z 0122/0218 16011KT P6SM VCSH SCT030 BKN070
      TEMPO 0122/0124 3/4SM +TSRA OVC015CB
     FM020000 23005KT P6SM SCT020 BKN090
     FM020600 29006KT P6SM BKN200
     FM021300 32005KT P6SM BKN060 OVC100=

USA.gov is the U.S. government's official web portal to all federal, state and local government web resources and services.